sensor_id;sensor_type;location;lat;lon;timestamp;pressure;altitude;pressure_sealevel;temperature;humidity
46464;BME280;32161;48.148;-1.554;2023-02-28T00:01:06;102127.66;;;2.08;72.12
46464;BME280;32161;48.148;-1.554;2023-02-28T00:03:33;102127.78;;;2.07;72.26
46464;BME280;32161;48.148;-1.554;2023-02-28T00:06:02;102125.25;;;2.05;72.20
46464;BME280;32161;48.148;-1.554;2023-02-28T00:08:30;102130.47;;;1.97;72.49
46464;BME280;32161;48.148;-1.554;2023-02-28T00:11:01;102139.34;;;1.98;72.57
46464;BME280;32161;48.148;-1.554;2023-02-28T00:13:30;102125.66;;;2.01;71.80
46464;BME280;32161;48.148;-1.554;2023-02-28T00:16:02;102137.66;;;1.97;72.36
46464;BME280;32161;48.148;-1.554;2023-02-28T00:18:31;102130.47;;;1.97;72.12
46464;BME280;32161;48.148;-1.554;2023-02-28T00:20:59;102139.63;;;1.94;71.85
46464;BME280;32161;48.148;-1.554;2023-02-28T00:23:27;102140.03;;;1.90;71.83
46464;BME280;32161;48.148;-1.554;2023-02-28T00:25:55;102133.97;;;1.88;72.49
46464;BME280;32161;48.148;-1.554;2023-02-28T00:28:23;102135.78;;;1.87;72.30
46464;BME280;32161;48.148;-1.554;2023-02-28T00:30:51;102136.63;;;1.88;72.50
46464;BME280;32161;48.148;-1.554;2023-02-28T00:33:19;102133.13;;;1.87;72.01
46464;BME280;32161;48.148;-1.554;2023-02-28T00:35:48;102129.88;;;1.84;72.53
46464;BME280;32161;48.148;-1.554;2023-02-28T00:38:15;102135.22;;;1.84;72.07
46464;BME280;32161;48.148;-1.554;2023-02-28T00:40:43;102136.22;;;1.83;72.44
46464;BME280;32161;48.148;-1.554;2023-02-28T00:43:11;102143.56;;;1.81;72.43
46464;BME280;32161;48.148;-1.554;2023-02-28T00:45:38;102138.59;;;1.76;72.79
46464;BME280;32161;48.148;-1.554;2023-02-28T00:48:06;102139.75;;;1.74;72.52
46464;BME280;32161;48.148;-1.554;2023-02-28T00:50:33;102143.69;;;1.69;72.95
46464;BME280;32161;48.148;-1.554;2023-02-28T00:53:02;102141.00;;;1.69;72.51
46464;BME280;32161;48.148;-1.554;2023-02-28T00:55:30;102137.59;;;1.67;72.09
46464;BME280;32161;48.148;-1.554;2023-02-28T00:57:57;102151.28;;;1.64;72.28
46464;BME280;32161;48.148;-1.554;2023-02-28T01:00:25;102141.53;;;1.63;72.58
46464;BME280;32161;48.148;-1.554;2023-02-28T01:02:52;102150.00;;;1.59;72.54
46464;BME280;32161;48.148;-1.554;2023-02-28T01:05:20;102141.81;;;1.60;73.25
46464;BME280;32161;48.148;-1.554;2023-02-28T01:07:47;102143.66;;;1.60;72.88
46464;BME280;32161;48.148;-1.554;2023-02-28T01:10:17;102139.00;;;1.62;72.86
46464;BME280;32161;48.148;-1.554;2023-02-28T01:12:44;102146.34;;;1.60;73.34
46464;BME280;32161;48.148;-1.554;2023-02-28T01:15:12;102140.28;;;1.58;73.90
46464;BME280;32161;48.148;-1.554;2023-02-28T01:17:40;102142.81;;;1.59;73.60
46464;BME280;32161;48.148;-1.554;2023-02-28T01:20:09;102149.44;;;1.55;73.80
46464;BME280;32161;48.148;-1.554;2023-02-28T01:22:37;102147.75;;;1.54;73.82
46464;BME280;32161;48.148;-1.554;2023-02-28T01:25:05;102152.22;;;1.54;73.75
46464;BME280;32161;48.148;-1.554;2023-02-28T01:27:35;102147.53;;;1.46;73.58
46464;BME280;32161;48.148;-1.554;2023-02-28T01:30:03;102153.06;;;1.44;73.41
46464;BME280;32161;48.148;-1.554;2023-02-28T01:32:31;102153.06;;;1.44;73.19
46464;BME280;32161;48.148;-1.554;2023-02-28T01:34:58;102148.09;;;1.40;73.32
46464;BME280;32161;48.148;-1.554;2023-02-28T01:37:26;102149.22;;;1.37;73.76
46464;BME280;32161;48.148;-1.554;2023-02-28T01:39:54;102147.25;;;1.39;73.83
46464;BME280;32161;48.148;-1.554;2023-02-28T01:42:22;102158.09;;;1.38;74.19
46464;BME280;32161;48.148;-1.554;2023-02-28T01:45:03;102159.09;;;1.37;74.41
46464;BME280;32161;48.148;-1.554;2023-02-28T01:47:34;102161.78;;;1.37;74.40
46464;BME280;32161;48.148;-1.554;2023-02-28T01:50:06;102160.19;;;1.34;74.07
46464;BME280;32161;48.148;-1.554;2023-02-28T01:52:34;102147.53;;;1.36;74.72
46464;BME280;32161;48.148;-1.554;2023-02-28T01:55:05;102146.69;;;1.36;74.80
46464;BME280;32161;48.148;-1.554;2023-02-28T01:57:37;102154.00;;;1.34;75.01
46464;BME280;32161;48.148;-1.554;2023-02-28T02:00:11;102162.44;;;1.29;75.12
46464;BME280;32161;48.148;-1.554;2023-02-28T02:02:43;102150.88;;;1.29;75.16
46464;BME280;32161;48.148;-1.554;2023-02-28T02:05:17;102161.44;;;1.30;74.92
46464;BME280;32161;48.148;-1.554;2023-02-28T02:07:49;102148.72;;;1.22;74.90
46464;BME280;32161;48.148;-1.554;2023-02-28T02:10:21;102156.75;;;1.22;74.34
46464;BME280;32161;48.148;-1.554;2023-02-28T02:13:37;102161.44;;;1.20;74.67
46464;BME280;32161;48.148;-1.554;2023-02-28T02:16:22;102167.78;;;1.19;74.70
46464;BME280;32161;48.148;-1.554;2023-02-28T02:18:54;102163.78;;;1.14;75.06
46464;BME280;32161;48.148;-1.554;2023-02-28T02:22:20;102163.38;;;1.18;74.65
46464;BME280;32161;48.148;-1.554;2023-02-28T02:25:15;102173.66;;;1.13;75.11
46464;BME280;32161;48.148;-1.554;2023-02-28T02:34:34;102172.22;;;1.09;75.53
46464;BME280;32161;48.148;-1.554;2023-02-28T02:37:16;102166.88;;;1.09;75.72
46464;BME280;32161;48.148;-1.554;2023-02-28T02:39:53;102165.03;;;1.10;75.28
46464;BME280;32161;48.148;-1.554;2023-02-28T02:42:29;102165.19;;;1.08;75.33
46464;BME280;32161;48.148;-1.554;2023-02-28T02:45:05;102154.47;;;1.08;74.91
46464;BME280;32161;48.148;-1.554;2023-02-28T02:47:36;102156.16;;;1.09;74.66
46464;BME280;32161;48.148;-1.554;2023-02-28T02:50:11;102152.75;;;1.07;75.03
46464;BME280;32161;48.148;-1.554;2023-02-28T02:52:44;102157.16;;;1.08;75.22
46464;BME280;32161;48.148;-1.554;2023-02-28T02:55:13;102149.81;;;1.10;75.06
46464;BME280;32161;48.148;-1.554;2023-02-28T02:57:48;102155.31;;;1.09;74.92
46464;BME280;32161;48.148;-1.554;2023-02-28T03:00:22;102148.28;;;1.08;75.30
46464;BME280;32161;48.148;-1.554;2023-02-28T03:02:52;102157.41;;;1.05;75.13
46464;BME280;32161;48.148;-1.554;2023-02-28T03:05:27;102153.03;;;1.04;75.07
46464;BME280;32161;48.148;-1.554;2023-02-28T03:07:57;102164.59;;;1.05;75.02
46464;BME280;32161;48.148;-1.554;2023-02-28T03:10:37;102161.78;;;1.06;75.03
46464;BME280;32161;48.148;-1.554;2023-02-28T03:13:23;102163.88;;;1.03;74.79
46464;BME280;32161;48.148;-1.554;2023-02-28T03:16:32;102156.09;;;1.00;74.60
46464;BME280;32161;48.148;-1.554;2023-02-28T03:19:25;102165.09;;;0.98;74.70
46464;BME280;32161;48.148;-1.554;2023-02-28T03:22:14;102149.44;;;0.94;75.02
46464;BME280;32161;48.148;-1.554;2023-02-28T03:24:48;102151.28;;;0.93;74.59
46464;BME280;32161;48.148;-1.554;2023-02-28T03:27:23;102152.13;;;0.94;75.35
46464;BME280;32161;48.148;-1.554;2023-02-28T03:29:59;102151.53;;;0.90;75.48
46464;BME280;32161;48.148;-1.554;2023-02-28T03:32:33;102148.13;;;0.88;75.57
46464;BME280;32161;48.148;-1.554;2023-02-28T03:35:07;102154.63;;;0.86;75.30
46464;BME280;32161;48.148;-1.554;2023-02-28T03:37:40;102152.97;;;0.94;75.16
46464;BME280;32161;48.148;-1.554;2023-02-28T03:40:13;102152.53;;;0.89;75.35
46464;BME280;32161;48.148;-1.554;2023-02-28T03:42:47;102153.91;;;0.84;75.08
46464;BME280;32161;48.148;-1.554;2023-02-28T03:45:19;102161.47;;;0.79;75.30
46464;BME280;32161;48.148;-1.554;2023-02-28T03:47:55;102159.78;;;0.78;75.08
46464;BME280;32161;48.148;-1.554;2023-02-28T03:50:29;102164.16;;;0.79;74.96
46464;BME280;32161;48.148;-1.554;2023-02-28T03:53:06;102153.97;;;0.72;75.03
46464;BME280;32161;48.148;-1.554;2023-02-28T03:55:40;102163.97;;;0.70;75.35
46464;BME280;32161;48.148;-1.554;2023-02-28T03:58:16;102156.19;;;0.67;75.06
46464;BME280;32161;48.148;-1.554;2023-02-28T04:00:50;102147.31;;;0.67;75.19
46464;BME280;32161;48.148;-1.554;2023-02-28T04:03:22;102151.00;;;0.66;75.72
46464;BME280;32161;48.148;-1.554;2023-02-28T04:05:52;102140.88;;;0.69;75.88
46464;BME280;32161;48.148;-1.554;2023-02-28T04:08:22;102148.91;;;0.69;75.66
46464;BME280;32161;48.148;-1.554;2023-02-28T04:10:55;102134.53;;;0.70;75.39
46464;BME280;32161;48.148;-1.554;2023-02-28T04:13:24;102148.03;;;0.69;75.57
46464;BME280;32161;48.148;-1.554;2023-02-28T04:15:52;102142.41;;;0.72;75.63
46464;BME280;32161;48.148;-1.554;2023-02-28T04:18:19;102146.22;;;0.69;75.84
46464;BME280;32161;48.148;-1.554;2023-02-28T04:20:47;102156.34;;;0.66;75.67
46464;BME280;32161;48.148;-1.554;2023-02-28T04:23:15;102154.09;;;0.71;75.52
46464;BME280;32161;48.148;-1.554;2023-02-28T04:25:43;102152.53;;;0.68;75.68
46464;BME280;32161;48.148;-1.554;2023-02-28T04:28:11;102152.66;;;0.67;75.57
46464;BME280;32161;48.148;-1.554;2023-02-28T04:30:39;102156.44;;;0.64;75.64
46464;BME280;32161;48.148;-1.554;2023-02-28T04:33:06;102166.44;;;0.62;76.07
46464;BME280;32161;48.148;-1.554;2023-02-28T04:35:34;102170.66;;;0.65;76.20
46464;BME280;32161;48.148;-1.554;2023-02-28T04:38:01;102170.97;;;0.62;76.46
46464;BME280;32161;48.148;-1.554;2023-02-28T04:40:29;102172.50;;;0.64;76.55
46464;BME280;32161;48.148;-1.554;2023-02-28T04:42:58;102170.56;;;0.66;76.15
46464;BME280;32161;48.148;-1.554;2023-02-28T04:45:26;102178.59;;;0.66;76.21
46464;BME280;32161;48.148;-1.554;2023-02-28T04:47:56;102187.47;;;0.67;76.33
46464;BME280;32161;48.148;-1.554;2023-02-28T04:50:23;102178.84;;;0.63;76.06
46464;BME280;32161;48.148;-1.554;2023-02-28T04:52:51;102191.22;;;0.64;75.96
46464;BME280;32161;48.148;-1.554;2023-02-28T04:55:18;102186.88;;;0.63;75.96
46464;BME280;32161;48.148;-1.554;2023-02-28T04:57:46;102180.66;;;0.63;75.66
46464;BME280;32161;48.148;-1.554;2023-02-28T05:00:16;102186.28;;;0.60;75.51
46464;BME280;32161;48.148;-1.554;2023-02-28T05:02:44;102194.44;;;0.58;75.42
46464;BME280;32161;48.148;-1.554;2023-02-28T05:05:12;102198.22;;;0.56;75.17
46464;BME280;32161;48.148;-1.554;2023-02-28T05:07:44;102189.59;;;0.52;75.54
46464;BME280;32161;48.148;-1.554;2023-02-28T05:10:12;102201.88;;;0.55;75.45
46464;BME280;32161;48.148;-1.554;2023-02-28T05:12:40;102198.47;;;0.53;75.51
46464;BME280;32161;48.148;-1.554;2023-02-28T05:15:10;102198.63;;;0.51;75.75
46464;BME280;32161;48.148;-1.554;2023-02-28T05:17:41;102209.06;;;0.54;76.02
46464;BME280;32161;48.148;-1.554;2023-02-28T05:20:12;102207.63;;;0.50;76.10
46464;BME280;32161;48.148;-1.554;2023-02-28T05:22:41;102208.81;;;0.46;75.94
46464;BME280;32161;48.148;-1.554;2023-02-28T05:25:12;102215.31;;;0.43;75.79
46464;BME280;32161;48.148;-1.554;2023-02-28T05:27:41;102219.81;;;0.43;75.82
46464;BME280;32161;48.148;-1.554;2023-02-28T05:30:10;102226.59;;;0.47;75.72
46464;BME280;32161;48.148;-1.554;2023-02-28T05:32:38;102221.25;;;0.47;75.57
46464;BME280;32161;48.148;-1.554;2023-02-28T05:35:11;102223.19;;;0.45;75.87
46464;BME280;32161;48.148;-1.554;2023-02-28T05:37:38;102219.53;;;0.46;75.97
46464;BME280;32161;48.148;-1.554;2023-02-28T05:40:08;102218.69;;;0.45;76.08
46464;BME280;32161;48.148;-1.554;2023-02-28T05:42:37;102224.16;;;0.44;76.18
46464;BME280;32161;48.148;-1.554;2023-02-28T05:45:06;102224.16;;;0.44;76.31
46464;BME280;32161;48.148;-1.554;2023-02-28T05:47:34;102225.16;;;0.43;76.46
46464;BME280;32161;48.148;-1.554;2023-02-28T05:50:03;102227.34;;;0.38;76.01
46464;BME280;32161;48.148;-1.554;2023-02-28T05:52:32;102233.91;;;0.34;76.01
46464;BME280;32161;48.148;-1.554;2023-02-28T05:55:00;102235.75;;;0.33;75.35
46464;BME280;32161;48.148;-1.554;2023-02-28T05:57:27;102233.91;;;0.34;75.16
46464;BME280;32161;48.148;-1.554;2023-02-28T05:59:55;102244.16;;;0.29;74.92
46464;BME280;32161;48.148;-1.554;2023-02-28T06:02:22;102236.53;;;0.24;75.45
46464;BME280;32161;48.148;-1.554;2023-02-28T06:04:50;102239.19;;;0.24;75.16
46464;BME280;32161;48.148;-1.554;2023-02-28T06:07:17;102242.97;;;0.21;75.00
46464;BME280;32161;48.148;-1.554;2023-02-28T06:09:46;102242.50;;;0.16;75.76
46464;BME280;32161;48.148;-1.554;2023-02-28T06:12:14;102242.75;;;0.13;76.30
46464;BME280;32161;48.148;-1.554;2023-02-28T06:14:42;102240.06;;;0.13;75.74
46464;BME280;32161;48.148;-1.554;2023-02-28T06:17:09;102234.72;;;0.13;75.44
46464;BME280;32161;48.148;-1.554;2023-02-28T06:19:37;102238.38;;;0.12;75.38
46464;BME280;32161;48.148;-1.554;2023-02-28T06:22:07;102231.06;;;0.14;75.44
46464;BME280;32161;48.148;-1.554;2023-02-28T06:24:34;102242.16;;;0.10;75.53
46464;BME280;32161;48.148;-1.554;2023-02-28T06:27:03;102232.91;;;0.03;75.85
46464;BME280;32161;48.148;-1.554;2023-02-28T06:29:32;102234.75;;;0.02;75.30
46464;BME280;32161;48.148;-1.554;2023-02-28T06:32:00;102236.56;;;0.02;75.52
46464;BME280;32161;48.148;-1.554;2023-02-28T06:34:27;102234.28;;;-0.14;76.69
46464;BME280;32161;48.148;-1.554;2023-02-28T06:36:55;102233.53;;;-0.05;77.30
46464;BME280;32161;48.148;-1.554;2023-02-28T06:39:23;102231.59;;;-0.03;76.83
46464;BME280;32161;48.148;-1.554;2023-02-28T06:41:50;102236.94;;;-0.03;75.91
46464;BME280;32161;48.148;-1.554;2023-02-28T06:44:20;102235.34;;;0.06;75.98
46464;BME280;32161;48.148;-1.554;2023-02-28T06:46:49;102241.06;;;0.12;76.50
46464;BME280;32161;48.148;-1.554;2023-02-28T06:49:17;102241.78;;;0.03;76.76
46464;BME280;32161;48.148;-1.554;2023-02-28T06:51:45;102247.41;;;0.00;76.22
46464;BME280;32161;48.148;-1.554;2023-02-28T06:54:13;102244.00;;;-0.02;76.18
46464;BME280;32161;48.148;-1.554;2023-02-28T06:56:41;102246.81;;;-0.04;76.15
46464;BME280;32161;48.148;-1.554;2023-02-28T06:59:08;102249.56;;;0.06;76.76
46464;BME280;32161;48.148;-1.554;2023-02-28T07:01:37;102253.56;;;0.12;76.89
46464;BME280;32161;48.148;-1.554;2023-02-28T07:04:05;102255.41;;;0.00;77.49
46464;BME280;32161;48.148;-1.554;2023-02-28T07:06:33;102262.44;;;0.12;77.71
46464;BME280;32161;48.148;-1.554;2023-02-28T07:09:01;102256.13;;;0.13;77.07
46464;BME280;32161;48.148;-1.554;2023-02-28T07:11:30;102266.66;;;0.15;77.62
46464;BME280;32161;48.148;-1.554;2023-02-28T07:13:58;102265.13;;;0.12;77.27
46464;BME280;32161;48.148;-1.554;2023-02-28T07:16:26;102274.19;;;0.32;77.56
46464;BME280;32161;48.148;-1.554;2023-02-28T07:18:55;102284.94;;;0.42;76.85
46464;BME280;32161;48.148;-1.554;2023-02-28T07:21:23;102279.16;;;0.26;76.76
46464;BME280;32161;48.148;-1.554;2023-02-28T07:23:51;102281.22;;;0.33;77.15
46464;BME280;32161;48.148;-1.554;2023-02-28T07:26:19;102285.38;;;0.26;77.75
46464;BME280;32161;48.148;-1.554;2023-02-28T07:28:48;102284.84;;;0.43;77.08
46464;BME280;32161;48.148;-1.554;2023-02-28T07:31:17;102292.63;;;0.46;77.04
46464;BME280;32161;48.148;-1.554;2023-02-28T07:33:45;102292.28;;;0.40;77.32
46464;BME280;32161;48.148;-1.554;2023-02-28T07:36:16;102293.78;;;0.54;77.19
46464;BME280;32161;48.148;-1.554;2023-02-28T07:38:46;102299.88;;;0.56;76.97
46464;BME280;32161;48.148;-1.554;2023-02-28T07:41:16;102304.84;;;0.60;76.78
46464;BME280;32161;48.148;-1.554;2023-02-28T07:43:44;102306.50;;;0.29;77.15
46464;BME280;32161;48.148;-1.554;2023-02-28T07:46:14;102316.44;;;0.38;77.24
46464;BME280;32161;48.148;-1.554;2023-02-28T07:48:43;102322.13;;;0.56;77.20
46464;BME280;32161;48.148;-1.554;2023-02-28T07:51:12;102318.44;;;0.68;76.92
46464;BME280;32161;48.148;-1.554;2023-02-28T07:53:40;102318.16;;;0.83;76.50
46464;BME280;32161;48.148;-1.554;2023-02-28T07:56:08;102319.94;;;0.93;75.74
46464;BME280;32161;48.148;-1.554;2023-02-28T07:58:36;102330.06;;;1.11;75.21
46464;BME280;32161;48.148;-1.554;2023-02-28T08:01:08;102332.34;;;0.94;75.46
46464;BME280;32161;48.148;-1.554;2023-02-28T08:03:36;102333.31;;;0.93;75.62
46464;BME280;32161;48.148;-1.554;2023-02-28T08:06:06;102329.28;;;0.99;75.83
46464;BME280;32161;48.148;-1.554;2023-02-28T08:08:35;102332.47;;;0.93;75.82
46464;BME280;32161;48.148;-1.554;2023-02-28T08:11:04;102332.38;;;1.15;75.28
46464;BME280;32161;48.148;-1.554;2023-02-28T08:13:31;102327.91;;;1.26;74.96
46464;BME280;32161;48.148;-1.554;2023-02-28T08:16:02;102330.50;;;1.27;75.38
46464;BME280;32161;48.148;-1.554;2023-02-28T08:18:29;102337.22;;;1.42;74.78
46464;BME280;32161;48.148;-1.554;2023-02-28T08:20:57;102320.00;;;1.45;74.59
46464;BME280;32161;48.148;-1.554;2023-02-28T08:23:25;102328.72;;;1.37;74.96
46464;BME280;32161;48.148;-1.554;2023-02-28T08:25:57;102336.91;;;1.04;75.39
46464;BME280;32161;48.148;-1.554;2023-02-28T08:28:24;102341.78;;;1.31;75.37
46464;BME280;32161;48.148;-1.554;2023-02-28T08:30:52;102337.91;;;1.44;74.76
46464;BME280;32161;48.148;-1.554;2023-02-28T08:33:19;102341.78;;;1.52;74.35
46464;BME280;32161;48.148;-1.554;2023-02-28T08:35:47;102341.44;;;1.66;74.71
46464;BME280;32161;48.148;-1.554;2023-02-28T08:38:14;102336.09;;;1.66;74.75
46464;BME280;32161;48.148;-1.554;2023-02-28T08:40:42;102343.47;;;1.74;73.94
46464;BME280;32161;48.148;-1.554;2023-02-28T08:43:11;102329.41;;;1.91;73.56
46464;BME280;32161;48.148;-1.554;2023-02-28T08:45:38;102335.78;;;1.90;73.14
46464;BME280;32161;48.148;-1.554;2023-02-28T08:48:06;102334.75;;;1.81;73.93
46464;BME280;32161;48.148;-1.554;2023-02-28T08:50:34;102328.84;;;1.87;73.61
46464;BME280;32161;48.148;-1.554;2023-02-28T08:53:01;102327.00;;;1.88;73.82
46464;BME280;32161;48.148;-1.554;2023-02-28T08:55:29;102336.75;;;1.89;73.34
46464;BME280;32161;48.148;-1.554;2023-02-28T08:57:56;102334.94;;;1.89;72.78
46464;BME280;32161;48.148;-1.554;2023-02-28T09:00:25;102326.91;;;1.99;72.54
46464;BME280;32161;48.148;-1.554;2023-02-28T09:02:53;102337.84;;;2.17;71.85
46464;BME280;32161;48.148;-1.554;2023-02-28T09:05:21;102332.16;;;2.51;70.39
46464;BME280;32161;48.148;-1.554;2023-02-28T09:07:50;102334.38;;;2.36;70.89
46464;BME280;32161;48.148;-1.554;2023-02-28T09:10:17;102334.91;;;2.30;72.20
46464;BME280;32161;48.148;-1.554;2023-02-28T09:12:45;102337.19;;;2.34;70.56
46464;BME280;32161;48.148;-1.554;2023-02-28T09:15:13;102332.84;;;2.43;69.96
46464;BME280;32161;48.148;-1.554;2023-02-28T09:17:42;102335.28;;;2.56;70.66
46464;BME280;32161;48.148;-1.554;2023-02-28T09:20:11;102338.53;;;2.59;69.37
46464;BME280;32161;48.148;-1.554;2023-02-28T09:22:39;102342.94;;;2.70;69.78
46464;BME280;32161;48.148;-1.554;2023-02-28T09:25:07;102334.72;;;2.62;70.01
46464;BME280;32161;48.148;-1.554;2023-02-28T09:27:35;102336.03;;;2.77;69.59
46464;BME280;32161;48.148;-1.554;2023-02-28T09:30:04;102338.97;;;2.84;68.34
46464;BME280;32161;48.148;-1.554;2023-02-28T09:32:31;102349.72;;;3.03;67.68
46464;BME280;32161;48.148;-1.554;2023-02-28T09:35:00;102340.13;;;2.91;67.29
46464;BME280;32161;48.148;-1.554;2023-02-28T09:37:28;102334.75;;;3.10;68.45
46464;BME280;32161;48.148;-1.554;2023-02-28T09:39:57;102334.59;;;3.22;67.42
46464;BME280;32161;48.148;-1.554;2023-02-28T09:42:30;102326.22;;;3.34;66.32
46464;BME280;32161;48.148;-1.554;2023-02-28T09:44:59;102335.53;;;3.50;64.97
46464;BME280;32161;48.148;-1.554;2023-02-28T09:47:31;102329.06;;;3.42;64.38
46464;BME280;32161;48.148;-1.554;2023-02-28T09:50:17;102339.22;;;3.49;65.15
46464;BME280;32161;48.148;-1.554;2023-02-28T09:52:49;102340.28;;;3.75;64.15
46464;BME280;32161;48.148;-1.554;2023-02-28T09:55:25;102338.50;;;3.56;64.02
46464;BME280;32161;48.148;-1.554;2023-02-28T09:57:55;102339.06;;;3.60;63.92
46464;BME280;32161;48.148;-1.554;2023-02-28T10:00:31;102351.59;;;3.79;64.18
46464;BME280;32161;48.148;-1.554;2023-02-28T10:03:20;102348.97;;;3.69;61.87
46464;BME280;32161;48.148;-1.554;2023-02-28T10:05:58;102340.63;;;3.62;63.00
46464;BME280;32161;48.148;-1.554;2023-02-28T10:08:36;102353.06;;;3.63;62.95
46464;BME280;32161;48.148;-1.554;2023-02-28T10:11:10;102348.66;;;4.09;60.59
46464;BME280;32161;48.148;-1.554;2023-02-28T10:13:50;102349.25;;;4.03;59.85
46464;BME280;32161;48.148;-1.554;2023-02-28T10:16:27;102349.78;;;4.07;59.72
46464;BME280;32161;48.148;-1.554;2023-02-28T10:19:02;102346.59;;;4.31;59.25
46464;BME280;32161;48.148;-1.554;2023-02-28T10:21:38;102340.78;;;4.26;61.06
46464;BME280;32161;48.148;-1.554;2023-02-28T10:24:19;102343.66;;;4.14;59.48
46464;BME280;32161;48.148;-1.554;2023-02-28T10:26:48;102338.19;;;4.06;60.81
46464;BME280;32161;48.148;-1.554;2023-02-28T10:29:19;102341.75;;;4.34;59.10
46464;BME280;32161;48.148;-1.554;2023-02-28T10:31:46;102341.84;;;4.60;58.27
46464;BME280;32161;48.148;-1.554;2023-02-28T10:34:14;102337.41;;;4.51;57.11
46464;BME280;32161;48.148;-1.554;2023-02-28T10:36:43;102324.72;;;4.34;59.55
46464;BME280;32161;48.148;-1.554;2023-02-28T10:39:41;102322.66;;;4.73;54.69
46464;BME280;32161;48.148;-1.554;2023-02-28T10:42:24;102338.41;;;4.68;55.88
46464;BME280;32161;48.148;-1.554;2023-02-28T10:45:13;102320.78;;;4.56;56.40
46464;BME280;32161;48.148;-1.554;2023-02-28T10:47:51;102327.56;;;4.78;56.01
46464;BME280;32161;48.148;-1.554;2023-02-28T10:50:34;102307.41;;;4.64;55.51
46464;BME280;32161;48.148;-1.554;2023-02-28T10:53:37;102318.81;;;4.94;55.54
46464;BME280;32161;48.148;-1.554;2023-02-28T10:56:15;102326.25;;;5.18;54.67
46464;BME280;32161;48.148;-1.554;2023-02-28T10:58:53;102322.16;;;4.96;53.87
46464;BME280;32161;48.148;-1.554;2023-02-28T11:01:24;102321.88;;;4.99;55.77
46464;BME280;32161;48.148;-1.554;2023-02-28T11:03:52;102320.72;;;5.19;55.42
46464;BME280;32161;48.148;-1.554;2023-02-28T11:06:23;102318.88;;;5.20;55.46
46464;BME280;32161;48.148;-1.554;2023-02-28T11:08:54;102321.38;;;5.39;55.76
46464;BME280;32161;48.148;-1.554;2023-02-28T11:11:24;102315.38;;;5.53;53.80
46464;BME280;32161;48.148;-1.554;2023-02-28T11:13:55;102295.38;;;5.38;52.46
46464;BME280;32161;48.148;-1.554;2023-02-28T11:16:33;102307.78;;;5.23;52.36
46464;BME280;32161;48.148;-1.554;2023-02-28T11:19:02;102293.66;;;5.29;53.74
46464;BME280;32161;48.148;-1.554;2023-02-28T11:21:34;102302.22;;;5.24;54.10
46464;BME280;32161;48.148;-1.554;2023-02-28T11:24:19;102288.91;;;5.49;54.50
46464;BME280;32161;48.148;-1.554;2023-02-28T11:26:49;102298.03;;;5.56;54.92
46464;BME280;32161;48.148;-1.554;2023-02-28T11:29:21;102275.53;;;5.39;54.17
46464;BME280;32161;48.148;-1.554;2023-02-28T11:32:15;102278.66;;;5.86;52.71
46464;BME280;32161;48.148;-1.554;2023-02-28T11:34:45;102275.28;;;5.50;52.97
46464;BME280;32161;48.148;-1.554;2023-02-28T11:37:16;102264.34;;;5.60;52.85
46464;BME280;32161;48.148;-1.554;2023-02-28T11:39:46;102265.97;;;5.79;55.00
46464;BME280;32161;48.148;-1.554;2023-02-28T11:42:32;102247.28;;;5.85;54.33
46464;BME280;32161;48.148;-1.554;2023-02-28T11:45:18;102247.91;;;6.14;53.79
46464;BME280;32161;48.148;-1.554;2023-02-28T11:47:56;102253.41;;;5.96;53.35
46464;BME280;32161;48.148;-1.554;2023-02-28T11:50:49;102239.06;;;6.54;53.50
46464;BME280;32161;48.148;-1.554;2023-02-28T11:53:48;102240.56;;;6.56;54.15
46464;BME280;32161;48.148;-1.554;2023-02-28T11:56:25;102238.56;;;6.50;53.27
46464;BME280;32161;48.148;-1.554;2023-02-28T11:59:14;102242.94;;;6.35;53.49
46464;BME280;32161;48.148;-1.554;2023-02-28T12:02:15;102225.72;;;6.44;52.73
46464;BME280;32161;48.148;-1.554;2023-02-28T12:04:59;102221.34;;;6.51;52.05
46464;BME280;32161;48.148;-1.554;2023-02-28T12:07:35;102222.34;;;6.42;53.38
46464;BME280;32161;48.148;-1.554;2023-02-28T12:10:20;102223.53;;;6.56;54.11
46464;BME280;32161;48.148;-1.554;2023-02-28T12:13:05;102221.19;;;6.85;53.57
46464;BME280;32161;48.148;-1.554;2023-02-28T12:16:00;102200.56;;;6.76;52.22
46464;BME280;32161;48.148;-1.554;2023-02-28T12:18:51;102192.63;;;6.83;51.89
46464;BME280;32161;48.148;-1.554;2023-02-28T12:21:31;102191.09;;;6.64;56.87
46464;BME280;32161;48.148;-1.554;2023-02-28T12:24:32;102194.63;;;7.05;54.15
46464;BME280;32161;48.148;-1.554;2023-02-28T12:27:07;102200.72;;;7.16;52.17
46464;BME280;32161;48.148;-1.554;2023-02-28T12:29:47;102190.22;;;7.13;53.91
46464;BME280;32161;48.148;-1.554;2023-02-28T12:32:21;102175.16;;;7.18;54.55
46464;BME280;32161;48.148;-1.554;2023-02-28T12:34:53;102178.34;;;7.30;54.22
46464;BME280;32161;48.148;-1.554;2023-02-28T12:37:28;102168.88;;;7.34;54.81
46464;BME280;32161;48.148;-1.554;2023-02-28T12:40:02;102165.16;;;7.35;56.94
46464;BME280;32161;48.148;-1.554;2023-02-28T12:42:36;102172.91;;;7.46;52.67
46464;BME280;32161;48.148;-1.554;2023-02-28T12:45:12;102180.00;;;7.47;54.17
46464;BME280;32161;48.148;-1.554;2023-02-28T12:47:45;102178.66;;;7.43;53.02
46464;BME280;32161;48.148;-1.554;2023-02-28T12:50:16;102179.81;;;7.49;54.51
46464;BME280;32161;48.148;-1.554;2023-02-28T12:52:54;102180.50;;;7.51;53.84
46464;BME280;32161;48.148;-1.554;2023-02-28T12:55:31;102158.97;;;7.66;53.07
46464;BME280;32161;48.148;-1.554;2023-02-28T12:58:10;102141.69;;;7.67;54.25
46464;BME280;32161;48.148;-1.554;2023-02-28T13:04:08;102124.25;;;7.38;56.16
46464;BME280;32161;48.148;-1.554;2023-02-28T13:07:00;102125.84;;;7.55;53.35
46464;BME280;32161;48.148;-1.554;2023-02-28T13:09:34;102131.66;;;7.44;53.96
46464;BME280;32161;48.148;-1.554;2023-02-28T13:12:01;102113.94;;;7.33;54.55
46464;BME280;32161;48.148;-1.554;2023-02-28T13:14:39;102107.44;;;7.51;54.84
46464;BME280;32161;48.148;-1.554;2023-02-28T13:17:17;102088.97;;;7.23;55.99
46464;BME280;32161;48.148;-1.554;2023-02-28T13:19:57;102102.28;;;7.64;54.16
46464;BME280;32161;48.148;-1.554;2023-02-28T13:22:41;102101.19;;;7.81;55.54
46464;BME280;32161;48.148;-1.554;2023-02-28T13:25:52;102105.03;;;8.10;55.75
46464;BME280;32161;48.148;-1.554;2023-02-28T13:29:27;102094.13;;;7.95;56.07